<?xml version="1.0" encoding="UTF-8" standalone="no" ?>
<gpx xmlns="http://www.topografix.com/GPX/1/1" xmlns:xsi="http://www.w3.org/2001/XMLSchema-instance" xsi:schemaLocation="http://www.topografix.com/GPX/1/1 http://www.topografix.com/GPX/1/1/gpx.xsd" version="1.1" creator="VisuGPX - https://www.visugpx.com">
  <metadata>
    <name>luzech 6 descentes</name>
    <desc><![CDATA[parcours typé enduro avec de belles descentes]]></desc>
  </metadata>
  <trk>
    <name><![CDATA[2014-04-01-08-18-57]]></name>
    <trkseg>
      <trkpt lat="44.46145" lon="1.2716">
        <ele>196.146</ele>
        <time>2014-04-01T08:32:14Z</time>
      </trkpt>
      <trkpt lat="44.4614" lon="1.27155">
        <ele>195.666</ele>
        <time>2014-04-01T08:32:18Z</time>
      </trkpt>
      <trkpt lat="44.46138" lon="1.27162">
        <ele>196.526</ele>
        <time>2014-04-01T08:32:23Z</time>
      </trkpt>
      <trkpt lat="44.46144" lon="1.27171">
        <ele>196.826</ele>
        <time>2014-04-01T08:32:29Z</time>
      </trkpt>
      <trkpt lat="44.46154" lon="1.27183">
        <ele>198.887</ele>
        <time>2014-04-01T08:32:38Z</time>
      </trkpt>
      <trkpt lat="44.46163" lon="1.27193">
        <ele>201.247</ele>
        <time>2014-04-01T08:32:47Z</time>
      </trkpt>
      <trkpt lat="44.46171" lon="1.27202">
        <ele>203.257</ele>
        <time>2014-04-01T08:32:55Z</time>
      </trkpt>
      <trkpt lat="44.4618" lon="1.27214">
        <ele>205.678</ele>
        <time>2014-04-01T08:33:04Z</time>
      </trkpt>
      <trkpt lat="44.46189" lon="1.27229">
        <ele>208.407</ele>
        <time>2014-04-01T08:33:14Z</time>
      </trkpt>
      <trkpt lat="44.46196" lon="1.27243">
        <ele>211.257</ele>
        <time>2014-04-01T08:33:23Z</time>
      </trkpt>
      <trkpt lat="44.46199" lon="1.2726">
        <ele>212.847</ele>
        <time>2014-04-01T08:33:32Z</time>
      </trkpt>
      <trkpt lat="44.46197" lon="1.27277">
        <ele>214.437</ele>
        <time>2014-04-01T08:33:41Z</time>
      </trkpt>
      <trkpt lat="44.4619" lon="1.27292">
        <ele>217.488</ele>
        <time>2014-04-01T08:33:50Z</time>
      </trkpt>
      <trkpt lat="44.46181" lon="1.27303">
        <ele>220.488</ele>
        <time>2014-04-01T08:33:59Z</time>
      </trkpt>
      <trkpt lat="44.46171" lon="1.27311">
        <ele>223.638</ele>
        <time>2014-04-01T08:34:08Z</time>
      </trkpt>
      <trkpt lat="44.4616" lon="1.27314">
        <ele>226.518</ele>
        <time>2014-04-01T08:34:16Z</time>
      </trkpt>
      <trkpt lat="44.46145" lon="1.27314">
        <ele>229.938</ele>
        <time>2014-04-01T08:34:27Z</time>
      </trkpt>
      <trkpt lat="44.46134" lon="1.2731">
        <ele>231.258</ele>
        <time>2014-04-01T08:34:35Z</time>
      </trkpt>
      <trkpt lat="44.46126" lon="1.27309">
        <ele>233.888</ele>
        <time>2014-04-01T08:34:43Z</time>
      </trkpt>
      <trkpt lat="44.46119" lon="1.2731">
        <ele>234.748</ele>
        <time>2014-04-01T08:34:49Z</time>
      </trkpt>
      <trkpt lat="44.46114" lon="1.27312">
        <ele>236.517</ele>
        <time>2014-04-01T08:34:54Z</time>
      </trkpt>
      <trkpt lat="44.46104" lon="1.27313">
        <ele>236.927</ele>
        <time>2014-04-01T08:35:01Z</time>
      </trkpt>
      <trkpt lat="44.46094" lon="1.27318">
        <ele>237.067</ele>
        <time>2014-04-01T08:35:08Z</time>
      </trkpt>
      <trkpt lat="44.46081" lon="1.27326">
        <ele>237.467</ele>
        <time>2014-04-01T08:35:16Z</time>
      </trkpt>
      <trkpt lat="44.4607" lon="1.27333">
        <ele>238.097</ele>
        <time>2014-04-01T08:35:22Z</time>
      </trkpt>
      <trkpt lat="44.46059" lon="1.27351">
        <ele>241.037</ele>
        <time>2014-04-01T08:35:30Z</time>
      </trkpt>
      <trkpt lat="44.46054" lon="1.27363">
        <ele>244.02</ele>
        <time>2014-04-01T08:35:35Z</time>
      </trkpt>
      <trkpt lat="44.46049" lon="1.27387">
        <ele>248.798</ele>
        <time>2014-04-01T08:35:43Z</time>
      </trkpt>
      <trkpt lat="44.46048" lon="1.27401">
        <ele>249.758</ele>
        <time>2014-04-01T08:35:48Z</time>
      </trkpt>
      <trkpt lat="44.46049" lon="1.27425">
        <ele>250.167</ele>
        <time>2014-04-01T08:35:56Z</time>
      </trkpt>
      <trkpt lat="44.46052" lon="1.27447">
        <ele>249.587</ele>
        <time>2014-04-01T08:36:04Z</time>
      </trkpt>
      <trkpt lat="44.46058" lon="1.27471">
        <ele>249.777</ele>
        <time>2014-04-01T08:36:13Z</time>
      </trkpt>
      <trkpt lat="44.46062" lon="1.275">
        <ele>251.317</ele>
        <time>2014-04-01T08:36:23Z</time>
      </trkpt>
      <trkpt lat="44.46062" lon="1.27523">
        <ele>251.817</ele>
        <time>2014-04-01T08:36:31Z</time>
      </trkpt>
      <trkpt lat="44.46068" lon="1.27533">
        <ele>250.256</ele>
        <time>2014-04-01T08:36:36Z</time>
      </trkpt>
      <trkpt lat="44.4607" lon="1.27534">
        <ele>249.246</ele>
        <time>2014-04-01T08:36:40Z</time>
      </trkpt>
    </trkseg>
  </trk>
</gpx>